Time;durP1;ratioP1;P1;durP2;ratioP2;P2;SDS_P1;SDS_P2;PMS_P1;PMS_P2;Temp;Humidity;BMP_temperature;BMP_pressure;BME280_temperature;BME280_humidity;BME280_pressure;Samples;Min_cycle;Max_cycle;Signal;HPM_P1;HPM_P2
2024/03/11 00:00:01;;;;;;;0.00;0.00;;;24.60;44.20;;;;;;5027954;28;20727;-50
2024/03/11 00:02:31;;;;;;;0.00;0.00;;;24.60;44.20;;;;;;5027625;28;20224;-48
2024/03/11 00:05:02;;;;;;;0.00;0.00;;;24.60;44.20;;;;;;5028069;28;20208;-49
2024/03/11 00:07:36;;;;;;;0.10;0.10;;;24.70;44.40;;;;;;5028374;28;20204;-50
2024/03/11 00:10:11;;;;;;;0.00;0.00;;;24.70;44.40;;;;;;5029058;28;20669;-49
2024/03/11 00:12:49;;;;;;;0.00;0.00;;;24.70;44.20;;;;;;5029069;28;20341;-53
2024/03/11 00:15:23;;;;;;;0.00;0.00;;;24.80;44.30;;;;;;5027651;28;20271;-47
2024/03/11 00:17:55;;;;;;;0.00;0.00;;;24.80;44.30;;;;;;5027938;28;20255;-51
2024/03/11 00:20:26;;;;;;;0.00;0.00;;;24.80;44.30;;;;;;5027834;28;20234;-48
2024/03/11 00:22:57;;;;;;;0.00;0.00;;;24.90;44.20;;;;;;5027667;28;20667;-48
2024/03/11 00:25:27;;;;;;;0.00;0.00;;;24.90;44.10;;;;;;5027021;28;20330;-50
2024/03/11 00:27:59;;;;;;;0.00;0.00;;;24.90;44.10;;;;;;5028107;28;20712;-48
2024/03/11 00:30:31;;;;;;;0.00;0.00;;;24.90;44.20;;;;;;5027612;28;20211;-52
2024/03/11 00:33:02;;;;;;;0.00;0.00;;;25.00;44.20;;;;;;5028001;28;20269;-48
2024/03/11 00:35:33;;;;;;;0.00;0.00;;;25.00;44.20;;;;;;5027299;28;20234;-51
2024/03/11 00:38:07;;;;;;;0.00;0.00;;;25.10;44.20;;;;;;5028328;28;20678;-52
2024/03/11 00:40:38;;;;;;;0.00;0.00;;;25.10;44.30;;;;;;5027560;28;20219;-53
2024/03/11 00:43:09;;;;;;;0.00;0.00;;;25.10;44.10;;;;;;5027806;28;20192;-54
2024/03/11 00:45:41;;;;;;;0.00;0.00;;;25.10;44.10;;;;;;5028078;28;20206;-51
2024/03/11 00:48:12;;;;;;;0.00;0.00;;;25.20;44.20;;;;;;5027127;28;20379;-52
2024/03/11 00:50:43;;;;;;;0.00;0.00;;;25.20;44.10;;;;;;5027196;28;20695;-50
2024/03/11 00:53:13;;;;;;;0.00;0.00;;;25.20;44.00;;;;;;5026850;28;20215;-52
2024/03/11 00:55:44;;;;;;;0.00;0.00;;;25.20;44.00;;;;;;5027519;28;20203;-54
2024/03/11 00:58:14;;;;;;;0.00;0.00;;;25.30;44.00;;;;;;5027387;28;20354;-53
2024/03/11 01:00:47;;;;;;;0.00;0.00;;;25.30;43.80;;;;;;5027625;28;20220;-50
2024/03/11 01:03:17;;;;;;;0.00;0.00;;;25.30;43.80;;;;;;5027826;28;20204;-53
2024/03/11 01:05:49;;;;;;;0.00;0.00;;;25.30;43.80;;;;;;5027677;28;20207;-55
2024/03/11 01:08:19;;;;;;;0.00;0.00;;;25.30;43.80;;;;;;5028047;28;20208;-53
2024/03/11 01:10:50;;;;;;;0.00;0.00;;;25.30;43.70;;;;;;5026834;28;20590;-54
2024/03/11 01:13:21;;;;;;;0.00;0.00;;;25.30;43.70;;;;;;5028002;28;20452;-52
2024/03/11 01:15:54;;;;;;;0.00;0.00;;;25.30;43.70;;;;;;5027702;28;20200;-51
2024/03/11 01:18:25;;;;;;;0.00;0.00;;;25.30;43.60;;;;;;5027750;28;20226;-51
2024/03/11 01:20:56;;;;;;;0.00;0.00;;;25.30;43.50;;;;;;5028176;28;20274;-52
2024/03/11 01:23:28;;;;;;;0.00;0.00;;;25.30;43.60;;;;;;5026605;28;20200;-54
2024/03/11 01:26:01;;;;;;;0.00;0.00;;;25.30;43.50;;;;;;5027472;28;20262;-51
2024/03/11 01:28:32;;;;;;;0.00;0.00;;;25.30;43.60;;;;;;5027256;28;20606;-54
2024/03/11 01:31:05;;;;;;;0.00;0.00;;;25.40;43.70;;;;;;5030248;28;20223;-49
2024/03/11 01:33:36;;;;;;;0.03;0.03;;;25.30;43.70;;;;;;5034841;28;20200;-49
2024/03/11 01:36:08;;;;;;;0.00;0.00;;;25.30;43.80;;;;;;5033985;28;20204;-49
2024/03/11 01:38:39;;;;;;;0.00;0.00;;;25.30;43.80;;;;;;5034393;28;20223;-50
2024/03/11 01:41:11;;;;;;;0.00;0.00;;;25.30;43.80;;;;;;5033886;28;20207;-53
2024/03/11 01:43:42;;;;;;;0.00;0.00;;;25.30;43.90;;;;;;5034092;28;20563;-51
2024/03/11 01:46:15;;;;;;;0.05;0.05;;;25.30;43.90;;;;;;5034515;28;20258;-48
2024/03/11 01:48:46;;;;;;;0.00;0.00;;;25.30;44.00;;;;;;5034235;28;20196;-49
2024/03/11 01:51:18;;;;;;;0.00;0.00;;;25.30;44.00;;;;;;5034301;28;20757;-49
2024/03/11 01:53:51;;;;;;;0.00;0.00;;;25.30;44.00;;;;;;5033874;28;20670;-48
2024/03/11 01:56:22;;;;;;;0.00;0.00;;;25.30;44.10;;;;;;5034782;28;20200;-49
2024/03/11 01:58:54;;;;;;;0.00;0.00;;;25.20;44.10;;;;;;5034046;28;20220;-49
2024/03/11 02:01:28;;;;;;;0.00;0.00;;;25.20;44.10;;;;;;5034383;28;20220;-50
2024/03/11 02:03:58;;;;;;;0.00;0.00;;;25.20;44.60;;;;;;5029142;28;20270;-51
2024/03/11 02:06:29;;;;;;;0.00;0.00;;;25.20;44.10;;;;;;5030548;28;20941;-48
2024/03/11 02:09:00;;;;;;;0.05;0.05;;;25.20;44.10;;;;;;5030779;28;20200;-52
2024/03/11 02:11:30;;;;;;;0.00;0.00;;;25.20;44.20;;;;;;5030185;28;20502;-49
2024/03/11 02:14:01;;;;;;;0.00;0.00;;;25.20;44.30;;;;;;5031102;28;20210;-52
2024/03/11 02:16:34;;;;;;;0.00;0.00;;;25.20;44.20;;;;;;5030218;28;20196;-50
2024/03/11 02:19:06;;;;;;;0.00;0.00;;;25.20;44.30;;;;;;5029268;28;20278;-49
2024/03/11 02:21:46;;;;;;;0.00;0.00;;;25.10;44.30;;;;;;5029578;28;20222;-51
2024/03/11 02:24:19;;;;;;;0.00;0.00;;;25.10;44.20;;;;;;5029795;28;20595;-50
2024/03/11 02:26:50;;;;;;;0.00;0.00;;;25.10;44.30;;;;;;5030324;28;20713;-47
2024/03/11 02:29:21;;;;;;;0.00;0.00;;;25.10;44.30;;;;;;5030237;28;20214;-51
2024/03/11 02:31:54;;;;;;;0.00;0.00;;;25.10;44.30;;;;;;5010118;28;20221;-48
2024/03/11 02:34:24;;;;;;;0.00;0.00;;;25.10;44.20;;;;;;5010235;28;20391;-50
2024/03/11 02:36:56;;;;;;;0.00;0.00;;;25.10;44.20;;;;;;5010664;28;20209;-49
2024/03/11 02:39:29;;;;;;;0.00;0.00;;;25.10;44.20;;;;;;5010082;28;20323;-48
2024/03/11 02:41:59;;;;;;;0.00;0.00;;;25.10;44.30;;;;;;5014374;28;20302;-50
2024/03/11 02:44:30;;;;;;;0.00;0.00;;;25.00;44.20;;;;;;5029280;28;20204;-48
2024/03/11 02:47:01;;;;;;;0.00;0.00;;;25.10;44.30;;;;;;5029542;28;20694;-47
2024/03/11 02:49:31;;;;;;;0.00;0.00;;;25.00;44.30;;;;;;5030038;28;20211;-50
2024/03/11 02:52:03;;;;;;;0.08;0.08;;;25.00;44.30;;;;;;5029698;28;20220;-47
2024/03/11 02:54:37;;;;;;;0.00;0.00;;;25.00;44.30;;;;;;5029011;28;20211;-50
2024/03/11 02:57:08;;;;;;;0.00;0.00;;;25.00;44.30;;;;;;5029432;28;20562;-50
2024/03/11 02:59:40;;;;;;;0.00;0.00;;;25.00;44.30;;;;;;5029315;28;20619;-50
2024/03/11 03:02:11;;;;;;;0.00;0.00;;;25.00;44.30;;;;;;5028810;28;20252;-51
2024/03/11 03:04:41;;;;;;;0.00;0.00;;;24.90;44.30;;;;;;5029392;28;20204;-52
2024/03/11 03:07:14;;;;;;;0.00;0.00;;;24.90;44.30;;;;;;5029723;28;20200;-52
2024/03/11 03:09:46;;;;;;;0.00;0.00;;;24.90;44.30;;;;;;5028854;28;20338;-51
2024/03/11 03:12:18;;;;;;;0.00;0.00;;;24.90;44.30;;;;;;5030030;28;20589;-48
2024/03/11 03:14:48;;;;;;;0.00;0.00;;;24.90;44.30;;;;;;5029146;28;20200;-51
2024/03/11 03:17:19;;;;;;;0.00;0.00;;;24.90;44.30;;;;;;5028827;28;20389;-48
2024/03/11 03:19:50;;;;;;;0.03;0.03;;;24.90;44.30;;;;;;5029499;28;20231;-50
2024/03/11 03:22:21;;;;;;;0.00;0.00;;;24.90;44.30;;;;;;5028015;28;20223;-52
2024/03/11 03:24:54;;;;;;;0.00;0.00;;;24.90;44.30;;;;;;5028964;28;20200;-46
2024/03/11 03:27:25;;;;;;;0.00;0.00;;;24.80;44.30;;;;;;5029114;28;20574;-48
2024/03/11 03:29:56;;;;;;;0.00;0.00;;;24.80;44.30;;;;;;5029686;28;20200;-51
2024/03/11 03:32:26;;;;;;;0.00;0.00;;;24.80;44.30;;;;;;5028987;28;20235;-50
2024/03/11 03:34:58;;;;;;;0.00;0.00;;;24.80;44.30;;;;;;5028732;28;20305;-50
2024/03/11 03:37:28;;;;;;;0.00;0.00;;;24.80;44.30;;;;;;5028350;28;20200;-48
2024/03/11 03:40:01;;;;;;;0.10;0.10;;;24.80;44.30;;;;;;5027322;28;20285;-49
2024/03/11 03:42:31;;;;;;;0.00;0.00;;;24.80;44.40;;;;;;5027471;28;20231;-49
2024/03/11 03:45:02;;;;;;;0.00;0.00;;;24.70;44.30;;;;;;5028857;28;20200;-52
2024/03/11 03:47:33;;;;;;;0.00;0.00;;;24.70;44.40;;;;;;5028306;28;20204;-47
2024/03/11 03:50:04;;;;;;;0.00;0.00;;;24.70;44.40;;;;;;5028362;28;20211;-50
2024/03/11 03:52:34;;;;;;;0.00;0.00;;;24.70;44.50;;;;;;5028389;28;20821;-50
2024/03/11 03:55:11;;;;;;;0.00;0.00;;;24.70;44.40;;;;;;5027556;28;20206;-49
2024/03/11 03:57:42;;;;;;;0.00;0.00;;;24.70;44.50;;;;;;5028489;28;20215;-50
2024/03/11 04:00:17;;;;;;;0.00;0.00;;;24.70;44.50;;;;;;5027684;28;20235;-50
2024/03/11 04:02:49;;;;;;;0.00;0.00;;;24.70;44.50;;;;;;5028170;28;20335;-51
2024/03/11 04:05:21;;;;;;;0.03;0.03;;;24.70;44.50;;;;;;5027180;28;20192;-49
2024/03/11 04:07:52;;;;;;;0.00;0.00;;;24.70;44.60;;;;;;5027905;28;20227;-50
2024/03/11 04:10:24;;;;;;;0.03;0.03;;;24.70;44.60;;;;;;5028880;28;20199;-50
2024/03/11 04:12:57;;;;;;;0.10;0.10;;;24.70;44.60;;;;;;5028416;28;20208;-47
2024/03/11 04:15:29;;;;;;;0.00;0.00;;;24.70;44.50;;;;;;5028011;28;20200;-50
2024/03/11 04:18:05;;;;;;;0.00;0.00;;;24.70;44.60;;;;;;5027712;28;20206;-50
2024/03/11 04:20:35;;;;;;;0.00;0.00;;;24.70;44.60;;;;;;5028231;28;20318;-47
2024/03/11 04:23:07;;;;;;;0.00;0.00;;;24.70;44.60;;;;;;5027885;28;20191;-46
2024/03/11 04:25:41;;;;;;;0.00;0.00;;;24.60;44.60;;;;;;5027908;28;20305;-47
2024/03/11 04:28:13;;;;;;;0.00;0.00;;;24.70;44.60;;;;;;5028562;28;20240;-46
2024/03/11 04:30:44;;;;;;;0.00;0.00;;;24.60;44.60;;;;;;5027710;28;20215;-47
2024/03/11 04:33:17;;;;;;;0.00;0.00;;;24.60;44.60;;;;;;5028382;28;20691;-47
2024/03/11 04:35:48;;;;;;;0.10;0.10;;;24.60;44.50;;;;;;5027460;28;20663;-47
2024/03/11 04:38:19;;;;;;;0.00;0.00;;;24.60;45.10;;;;;;5027900;28;20200;-50
2024/03/11 04:40:52;;;;;;;0.10;0.10;;;24.60;44.40;;;;;;5027125;28;20232;-50
2024/03/11 04:43:22;;;;;;;0.00;0.00;;;24.60;44.50;;;;;;5027491;28;20200;-48
2024/03/11 04:45:53;;;;;;;0.00;0.00;;;24.60;44.50;;;;;;5027658;28;20199;-50
2024/03/11 04:48:24;;;;;;;0.00;0.00;;;24.60;44.60;;;;;;5027855;28;20508;-50
2024/03/11 04:50:55;;;;;;;0.00;0.00;;;24.60;44.70;;;;;;5028134;28;20238;-50
2024/03/11 04:53:25;;;;;;;0.00;0.00;;;24.60;44.80;;;;;;5027429;28;20217;-48
2024/03/11 04:55:58;;;;;;;0.00;0.00;;;24.60;44.80;;;;;;5025823;28;20195;-47
2024/03/11 04:58:28;;;;;;;0.10;0.10;;;24.60;44.90;;;;;;5027229;28;20207;-49
2024/03/11 05:00:59;;;;;;;0.08;0.08;;;24.60;44.80;;;;;;5026360;28;20231;-49
2024/03/11 05:03:30;;;;;;;0.00;0.00;;;24.60;44.90;;;;;;5026582;28;20200;-48
2024/03/11 05:06:01;;;;;;;0.05;0.05;;;24.50;44.80;;;;;;5028332;28;20196;-46
2024/03/11 05:08:32;;;;;;;0.00;0.00;;;24.50;44.90;;;;;;5031479;28;20199;-48
2024/03/11 05:11:04;;;;;;;0.10;0.10;;;24.50;44.90;;;;;;5030994;28;20232;-52
2024/03/11 05:13:35;;;;;;;0.00;0.00;;;24.60;44.90;;;;;;5033034;28;20270;-50
2024/03/11 05:16:06;;;;;;;0.00;0.00;;;24.60;44.90;;;;;;5031810;28;20204;-47
2024/03/11 05:18:37;;;;;;;0.10;0.10;;;24.50;44.90;;;;;;5031248;28;20242;-50
2024/03/11 05:21:08;;;;;;;0.00;0.00;;;24.50;44.90;;;;;;5031053;28;20231;-50
2024/03/11 05:23:39;;;;;;;0.00;0.00;;;24.50;44.90;;;;;;5031784;28;20200;-50
2024/03/11 05:26:11;;;;;;;0.00;0.00;;;24.50;44.90;;;;;;5030497;28;20275;-50
2024/03/11 05:28:42;;;;;;;0.10;0.10;;;24.50;44.90;;;;;;5031304;28;20361;-49
2024/03/11 05:31:13;;;;;;;0.00;0.00;;;24.50;44.90;;;;;;5030833;28;20327;-46
2024/03/11 05:33:43;;;;;;;0.05;0.05;;;24.50;44.90;;;;;;5031082;28;20299;-47
2024/03/11 05:36:16;;;;;;;0.00;0.00;;;24.50;44.90;;;;;;5031076;28;20262;-50
2024/03/11 05:38:47;;;;;;;0.00;0.00;;;24.40;44.80;;;;;;5031083;28;20200;-48
2024/03/11 05:41:19;;;;;;;0.10;0.10;;;24.40;44.80;;;;;;5030714;28;20232;-49
2024/03/11 05:43:50;;;;;;;0.00;0.00;;;24.40;45.40;;;;;;5030331;28;20203;-51
2024/03/11 05:46:20;;;;;;;0.00;0.00;;;24.40;44.80;;;;;;5031027;28;20552;-50
2024/03/11 05:48:51;;;;;;;0.10;0.10;;;24.50;44.80;;;;;;5030516;28;20200;-48
2024/03/11 05:51:22;;;;;;;0.10;0.10;;;24.40;44.80;;;;;;5030410;28;20277;-50
2024/03/11 05:53:56;;;;;;;0.10;0.10;;;24.40;44.80;;;;;;5030981;28;20324;-48
2024/03/11 05:56:29;;;;;;;0.00;0.00;;;24.40;44.90;;;;;;5030967;28;20210;-46
2024/03/11 05:59:00;;;;;;;0.00;0.00;;;24.30;45.00;;;;;;5030145;28;20656;-55
2024/03/11 06:01:31;;;;;;;0.10;0.10;;;24.30;45.10;;;;;;5030034;28;20231;-49
2024/03/11 06:04:02;;;;;;;0.00;0.00;;;24.30;45.10;;;;;;5030782;28;20215;-50
2024/03/11 06:06:33;;;;;;;0.03;0.03;;;24.30;45.20;;;;;;5030273;28;20701;-51
2024/03/11 06:09:09;;;;;;;0.00;0.00;;;24.30;45.30;;;;;;5030828;28;20200;-48
2024/03/11 06:11:42;;;;;;;0.00;0.00;;;24.30;45.30;;;;;;5014169;28;20220;-53
2024/03/11 06:14:13;;;;;;;0.10;0.10;;;24.30;45.30;;;;;;5030506;28;20656;-49
2024/03/11 06:16:45;;;;;;;0.00;0.00;;;24.30;45.40;;;;;;5036252;28;20274;-48
2024/03/11 06:19:17;;;;;;;0.10;0.10;;;24.20;45.40;;;;;;5049695;28;20206;-49
2024/03/11 06:21:48;;;;;;;0.00;0.00;;;24.20;45.60;;;;;;5048335;28;20622;-51
2024/03/11 06:24:19;;;;;;;0.00;0.00;;;24.20;45.40;;;;;;5046435;28;20246;-48
2024/03/11 06:26:52;;;;;;;0.00;0.00;;;24.20;45.50;;;;;;5028837;28;20196;-49
2024/03/11 06:29:24;;;;;;;0.00;0.00;;;24.20;45.50;;;;;;5029751;28;20750;-52
2024/03/11 06:31:55;;;;;;;0.00;0.00;;;24.20;45.50;;;;;;5028843;28;20212;-50
2024/03/11 06:34:27;;;;;;;0.10;0.10;;;24.20;45.60;;;;;;5030027;28;20199;-50
2024/03/11 06:36:58;;;;;;;0.00;0.00;;;24.10;45.50;;;;;;5030165;28;20819;-51
2024/03/11 06:39:31;;;;;;;0.00;0.00;;;24.10;45.50;;;;;;5029377;28;20208;-53
2024/03/11 06:42:03;;;;;;;0.00;0.00;;;24.10;45.50;;;;;;5029623;28;20227;-51
2024/03/11 06:44:35;;;;;;;0.00;0.00;;;24.10;45.50;;;;;;5029670;28;20211;-51
2024/03/11 06:47:06;;;;;;;0.00;0.00;;;24.10;45.50;;;;;;5028324;28;20199;-51
2024/03/11 06:49:37;;;;;;;0.00;0.00;;;24.00;45.40;;;;;;5032743;28;20279;-50
2024/03/11 06:52:09;;;;;;;0.00;0.00;;;24.00;45.40;;;;;;5032870;28;20220;-47
2024/03/11 06:54:40;;;;;;;0.00;0.00;;;24.00;45.40;;;;;;5032872;28;20207;-50
2024/03/11 06:57:14;;;;;;;0.00;0.00;;;24.00;45.40;;;;;;5033770;28;20200;-50
2024/03/11 06:59:45;;;;;;;0.05;0.05;;;24.00;45.40;;;;;;5033097;28;20656;-51
2024/03/11 07:02:20;;;;;;;0.10;0.10;;;23.90;45.40;;;;;;5032553;28;20213;-48
2024/03/11 07:04:51;;;;;;;0.00;0.00;;;24.00;45.40;;;;;;5032122;28;20577;-46
2024/03/11 07:07:21;;;;;;;0.00;0.00;;;23.90;45.40;;;;;;5032463;28;20725;-54
2024/03/11 07:09:52;;;;;;;0.10;0.10;;;23.90;45.30;;;;;;5032458;28;20197;-49
2024/03/11 07:12:30;;;;;;;0.00;0.00;;;23.90;45.40;;;;;;5033413;28;20575;-53
2024/03/11 07:15:02;;;;;;;0.10;0.10;;;23.90;45.50;;;;;;5032268;28;20199;-49
2024/03/11 07:17:34;;;;;;;0.10;0.10;;;23.90;45.40;;;;;;5033007;28;20204;-51
2024/03/11 07:20:07;;;;;;;0.00;0.00;;;23.80;45.40;;;;;;5032775;28;20207;-54
2024/03/11 07:22:38;;;;;;;0.08;0.08;;;23.80;45.40;;;;;;5032674;28;20294;-52
2024/03/11 07:25:10;;;;;;;0.00;0.00;;;23.80;45.80;;;;;;5032287;28;20236;-52
2024/03/11 07:27:43;;;;;;;0.00;0.00;;;23.80;45.40;;;;;;5032444;28;20275;-50
2024/03/11 07:30:14;;;;;;;0.00;0.00;;;23.80;45.40;;;;;;5031793;28;20200;-66
2024/03/11 07:32:45;;;;;;;0.00;0.00;;;23.80;45.60;;;;;;5033179;28;20486;-65
2024/03/11 07:35:16;;;;;;;0.00;0.00;;;23.80;46.60;;;;;;5032727;28;20656;-49
2024/03/11 07:37:47;;;;;;;0.00;0.00;;;23.80;47.30;;;;;;5032391;28;20211;-53
2024/03/11 07:40:17;;;;;;;0.00;0.00;;;23.70;47.70;;;;;;5032040;28;20230;-63
2024/03/11 07:42:51;;;;;;;0.00;0.00;;;23.60;47.80;;;;;;5032232;28;20553;-51
2024/03/11 07:45:22;;;;;;;0.00;0.00;;;23.50;48.20;;;;;;5031885;28;20730;-51
2024/03/11 07:47:54;;;;;;;0.00;0.00;;;23.50;48.40;;;;;;5027120;28;20613;-48
2024/03/11 07:50:25;;;;;;;0.00;0.00;;;23.40;48.80;;;;;;5027774;28;20208;-56
2024/03/11 07:52:56;;;;;;;0.00;0.00;;;23.40;48.30;;;;;;5028422;28;20196;-53
2024/03/11 07:55:28;;;;;;;0.00;0.00;;;23.40;48.40;;;;;;5028375;28;20568;-49
2024/03/11 07:58:01;;;;;;;0.03;0.03;;;23.30;48.50;;;;;;5028689;28;20656;-49
2024/03/11 08:00:35;;;;;;;0.10;0.10;;;23.30;48.40;;;;;;5027681;28;20238;-49
2024/03/11 08:03:07;;;;;;;0.00;0.00;;;23.30;48.40;;;;;;5026915;28;20191;-48
2024/03/11 08:05:38;;;;;;;0.10;0.10;;;23.30;48.30;;;;;;5028121;28;20686;-52
2024/03/11 08:08:09;;;;;;;0.10;0.10;;;23.30;48.30;;;;;;5027779;28;20250;-51
2024/03/11 08:10:40;;;;;;;0.00;0.00;;;23.30;48.30;;;;;;5028074;28;20220;-55
2024/03/11 08:13:13;;;;;;;0.10;0.10;;;23.30;48.30;;;;;;5028955;28;20646;-49
2024/03/11 08:15:44;;;;;;;0.03;0.03;;;23.30;48.30;;;;;;5027146;28;20196;-46
2024/03/11 08:18:15;;;;;;;0.00;0.00;;;23.30;48.20;;;;;;5027257;28;20199;-52
2024/03/11 08:20:47;;;;;;;0.00;0.00;;;23.30;48.10;;;;;;5027437;28;20243;-47
2024/03/11 08:23:18;;;;;;;0.00;0.00;;;23.30;48.10;;;;;;5028007;28;20631;-47
2024/03/11 08:25:49;;;;;;;0.00;0.00;;;23.30;48.00;;;;;;5027244;28;20957;-49
2024/03/11 08:28:21;;;;;;;0.10;0.10;;;23.30;48.00;;;;;;5028427;28;20200;-49
2024/03/11 08:30:52;;;;;;;0.10;0.10;;;23.20;47.90;;;;;;5026996;28;20299;-48
2024/03/11 08:33:23;;;;;;;0.00;0.00;;;23.20;47.80;;;;;;5027680;28;20200;-47
2024/03/11 08:35:55;;;;;;;0.00;0.00;;;23.20;47.90;;;;;;5028025;28;20663;-49
2024/03/11 08:38:28;;;;;;;0.00;0.00;;;23.20;47.80;;;;;;5027392;28;20208;-50
2024/03/11 08:40:59;;;;;;;0.10;0.10;;;23.20;47.80;;;;;;5026845;28;20236;-55
2024/03/11 08:43:31;;;;;;;0.10;0.10;;;23.20;47.80;;;;;;5027631;28;20208;-51
2024/03/11 08:46:03;;;;;;;0.00;0.00;;;23.10;47.60;;;;;;5027252;28;20225;-53
2024/03/11 08:48:33;;;;;;;0.00;0.00;;;23.10;47.60;;;;;;5027329;28;20595;-49
2024/03/11 08:51:04;;;;;;;0.00;0.00;;;23.10;47.60;;;;;;5027775;28;20231;-57
2024/03/11 08:53:35;;;;;;;0.00;0.00;;;23.10;47.60;;;;;;5027091;28;20197;-50
2024/03/11 08:56:06;;;;;;;0.00;0.00;;;23.10;47.60;;;;;;5027434;28;20208;-50
2024/03/11 08:58:41;;;;;;;0.00;0.00;;;23.10;47.50;;;;;;5027283;28;20188;-48
2024/03/11 09:01:12;;;;;;;0.00;0.00;;;23.10;47.60;;;;;;5026956;28;20247;-55
2024/03/11 09:03:43;;;;;;;0.00;0.00;;;23.10;47.60;;;;;;5028184;28;20286;-47
2024/03/11 09:06:14;;;;;;;0.00;0.00;;;23.10;47.50;;;;;;5028139;28;20204;-52
2024/03/11 09:08:48;;;;;;;0.03;0.03;;;23.10;47.50;;;;;;5027575;28;20452;-56
2024/03/11 09:11:18;;;;;;;0.00;0.00;;;23.10;47.60;;;;;;5027422;28;20223;-48
2024/03/11 09:13:51;;;;;;;0.00;0.00;;;23.10;47.60;;;;;;5027580;28;20286;-54
2024/03/11 09:16:22;;;;;;;0.08;0.08;;;23.10;47.40;;;;;;5027960;28;20652;-51
2024/03/11 09:18:53;;;;;;;0.10;0.10;;;23.10;47.40;;;;;;5026945;28;20214;-56
2024/03/11 09:21:24;;;;;;;0.00;0.00;;;23.10;47.30;;;;;;5027267;28;20242;-51
2024/03/11 09:23:55;;;;;;;0.00;0.00;;;23.00;47.30;;;;;;5027204;28;20254;-51
2024/03/11 09:26:26;;;;;;;0.00;0.00;;;23.00;47.20;;;;;;5027732;28;20287;-51
2024/03/11 09:28:58;;;;;;;0.03;0.03;;;23.00;47.30;;;;;;5026967;28;20200;-48
2024/03/11 09:31:29;;;;;;;0.00;0.00;;;23.00;47.20;;;;;;5026871;28;20231;-53
2024/03/11 09:34:02;;;;;;;0.10;0.10;;;23.00;47.20;;;;;;5027591;28;20727;-48
2024/03/11 09:36:33;;;;;;;0.10;0.10;;;23.00;47.20;;;;;;5026725;28;20660;-52
2024/03/11 09:39:06;;;;;;;0.00;0.00;;;23.00;47.20;;;;;;5027138;28;20218;-51
2024/03/11 09:41:42;;;;;;;0.00;0.00;;;23.00;47.10;;;;;;5027531;28;20305;-52
2024/03/11 09:44:18;;;;;;;0.00;0.00;;;23.00;47.10;;;;;;5012725;28;20199;-50
2024/03/11 09:46:50;;;;;;;0.00;0.00;;;22.90;47.10;;;;;;5026483;28;20235;-50
2024/03/11 09:49:23;;;;;;;0.00;0.00;;;22.90;47.60;;;;;;5026018;28;20200;-48
2024/03/11 09:51:55;;;;;;;0.00;0.00;;;22.90;47.70;;;;;;5027110;28;20220;-52
2024/03/11 09:54:26;;;;;;;0.00;0.00;;;22.90;47.00;;;;;;5030074;28;20203;-55
2024/03/11 09:56:58;;;;;;;0.00;0.00;;;22.90;47.10;;;;;;5029668;28;20207;-53
2024/03/11 09:59:41;;;;;;;0.00;0.00;;;22.90;47.10;;;;;;5028436;28;20615;-49
2024/03/11 10:02:21;;;;;;;0.00;0.00;;;22.90;47.10;;;;;;5029127;28;20232;-57
2024/03/11 10:04:53;;;;;;;0.00;0.00;;;22.90;47.10;;;;;;5030986;28;20195;-54
2024/03/11 10:07:25;;;;;;;0.05;0.05;;;22.90;47.10;;;;;;5030924;28;20223;-51
2024/03/11 10:09:56;;;;;;;0.08;0.08;;;22.90;47.00;;;;;;5030172;28;20196;-54
2024/03/11 10:12:31;;;;;;;0.00;0.00;;;22.90;47.00;;;;;;5030477;28;20234;-49
2024/03/11 10:15:06;;;;;;;0.00;0.00;;;22.90;47.00;;;;;;5030472;28;20580;-47
2024/03/11 10:17:43;;;;;;;0.00;0.00;;;22.90;47.00;;;;;;5030642;28;21009;-46
2024/03/11 10:20:22;;;;;;;0.00;0.00;;;22.80;47.00;;;;;;5029838;28;20611;-53
2024/03/11 10:22:55;;;;;;;0.00;0.00;;;22.80;47.00;;;;;;5030545;28;20263;-53
2024/03/11 10:25:28;;;;;;;0.00;0.00;;;22.80;47.60;;;;;;5029700;28;20711;-49
2024/03/11 10:28:03;;;;;;;0.13;0.13;;;22.80;47.10;;;;;;5029160;28;20196;-54
2024/03/11 10:30:36;;;;;;;0.00;0.00;;;22.80;47.10;;;;;;5027663;28;20232;-49
2024/03/11 10:33:08;;;;;;;0.00;0.00;;;22.80;47.10;;;;;;5029709;28;20656;-54
2024/03/11 10:35:43;;;;;;;0.03;0.03;;;22.70;47.00;;;;;;5030758;28;20204;-54
2024/03/11 10:38:14;;;;;;;0.00;0.00;;;22.70;47.00;;;;;;5029624;28;20200;-56
2024/03/11 10:40:45;;;;;;;0.03;0.03;;;22.70;47.00;;;;;;5030009;28;20266;-51
2024/03/11 10:43:25;;;;;;;0.10;0.10;;;22.70;47.00;;;;;;5033421;28;20196;-50
2024/03/11 10:45:58;;;;;;;0.00;0.00;;;22.70;47.00;;;;;;5033020;28;20195;-49
2024/03/11 10:48:32;;;;;;;0.10;0.10;;;22.70;47.00;;;;;;5033507;28;20207;-50
2024/03/11 10:51:04;;;;;;;0.00;0.00;;;22.70;47.00;;;;;;5032480;28;20231;-50
2024/03/11 10:53:35;;;;;;;0.08;0.08;;;22.70;47.10;;;;;;5032718;28;20235;-50
2024/03/11 10:56:10;;;;;;;0.05;0.05;;;22.60;47.70;;;;;;5031192;28;20631;-51
2024/03/11 10:58:42;;;;;;;0.00;0.00;;;22.60;47.10;;;;;;5033044;28;20192;-47
2024/03/11 11:01:16;;;;;;;0.03;0.03;;;22.60;47.10;;;;;;5032412;28;20299;-46
2024/03/11 11:03:52;;;;;;;0.00;0.00;;;22.60;47.10;;;;;;5031655;28;20193;-45
2024/03/11 11:06:27;;;;;;;0.10;0.10;;;22.60;47.20;;;;;;5032991;28;20195;-48
2024/03/11 11:08:58;;;;;;;0.00;0.00;;;22.60;47.20;;;;;;5032652;28;20342;-48
2024/03/11 11:11:28;;;;;;;0.00;0.00;;;22.60;47.20;;;;;;5033217;28;20289;-49
2024/03/11 11:13:59;;;;;;;0.00;0.00;;;22.60;47.30;;;;;;5033978;28;20596;-47
2024/03/11 11:16:32;;;;;;;0.00;0.00;;;22.60;47.30;;;;;;5033151;28;20200;-53
2024/03/11 11:19:03;;;;;;;0.10;0.10;;;22.60;47.30;;;;;;5032687;28;20753;-55
2024/03/11 11:21:34;;;;;;;0.00;0.00;;;22.60;47.30;;;;;;5032767;28;20695;-53
2024/03/11 11:24:27;;;;;;;0.00;0.00;;;22.50;47.30;;;;;;5032670;28;20215;-50
2024/03/11 11:27:01;;;;;;;0.00;0.00;;;22.50;47.30;;;;;;5032743;28;20204;-50
2024/03/11 11:29:32;;;;;;;0.10;0.10;;;22.50;47.20;;;;;;5032878;28;20200;-53
2024/03/11 11:32:11;;;;;;;0.00;0.00;;;22.50;47.30;;;;;;5031911;28;20220;-52
2024/03/11 11:34:59;;;;;;;0.10;0.10;;;22.50;47.30;;;;;;5032207;28;20200;-49
2024/03/11 11:37:39;;;;;;;0.00;0.00;;;22.50;47.40;;;;;;5031842;28;20664;-53
2024/03/11 11:40:32;;;;;;;0.10;0.10;;;22.50;47.30;;;;;;5030183;28;20192;-49
2024/03/11 11:43:03;;;;;;;0.10;0.10;;;22.50;47.40;;;;;;5029393;28;20270;-49
2024/03/11 11:45:54;;;;;;;0.10;0.10;;;22.50;47.40;;;;;;5031978;28;20184;-47
2024/03/11 11:48:30;;;;;;;0.00;0.00;;;22.50;47.40;;;;;;5031598;28;20192;-49
2024/03/11 11:51:01;;;;;;;0.00;0.00;;;22.50;47.40;;;;;;5031385;28;20651;-50
2024/03/11 11:53:35;;;;;;;0.00;0.00;;;22.50;47.40;;;;;;5031633;28;20193;-47
2024/03/11 11:56:06;;;;;;;0.10;0.10;;;22.40;47.40;;;;;;5030021;28;20208;-46
2024/03/11 11:58:40;;;;;;;0.10;0.10;;;22.50;47.40;;;;;;5031750;28;20189;-49
2024/03/11 12:01:11;;;;;;;0.10;0.10;;;22.40;47.30;;;;;;5031724;28;20212;-47
2024/03/11 12:03:43;;;;;;;0.05;0.05;;;22.40;47.40;;;;;;5031652;28;20269;-48
2024/03/11 12:06:19;;;;;;;0.10;0.10;;;22.40;47.40;;;;;;5031493;28;20196;-53
2024/03/11 12:08:51;;;;;;;0.10;0.10;;;22.40;47.40;;;;;;5029460;28;20192;-45
2024/03/11 12:11:24;;;;;;;0.00;0.00;;;22.40;47.30;;;;;;5028154;28;20303;-47
2024/03/11 12:13:59;;;;;;;0.08;0.08;;;22.40;47.40;;;;;;5031585;28;20196;-48
2024/03/11 12:16:30;;;;;;;0.00;0.00;;;22.40;47.30;;;;;;5029755;28;20701;-47
2024/03/11 12:19:05;;;;;;;0.10;0.10;;;22.40;47.40;;;;;;5031549;28;20550;-49
2024/03/11 12:21:36;;;;;;;0.00;0.00;;;22.40;47.30;;;;;;5030788;28;20216;-54
2024/03/11 12:24:09;;;;;;;0.03;0.03;;;22.30;47.30;;;;;;5028645;28;20196;-49
2024/03/11 12:26:41;;;;;;;0.00;0.00;;;22.30;47.80;;;;;;5031405;28;20184;-49
2024/03/11 12:29:15;;;;;;;0.00;0.00;;;22.30;47.20;;;;;;5031338;28;20200;-54
2024/03/11 12:31:53;;;;;;;0.10;0.10;;;22.40;47.30;;;;;;5028982;28;20286;-52
2024/03/11 12:34:26;;;;;;;0.00;0.00;;;22.30;47.30;;;;;;5031498;28;20188;-48
2024/03/11 12:36:59;;;;;;;0.00;0.00;;;22.30;47.30;;;;;;5031103;28;20285;-49
2024/03/11 12:39:34;;;;;;;0.10;0.10;;;22.30;47.30;;;;;;5029261;28;20192;-50
2024/03/11 12:42:08;;;;;;;0.00;0.00;;;22.30;47.40;;;;;;5030943;28;20219;-54
2024/03/11 12:44:39;;;;;;;0.10;0.10;;;22.30;47.40;;;;;;5031591;28;20207;-56
2024/03/11 12:47:11;;;;;;;0.10;0.10;;;22.30;47.40;;;;;;5031439;28;20200;-50
2024/03/11 12:49:44;;;;;;;0.05;0.05;;;22.30;47.40;;;;;;5031226;28;20204;-47
2024/03/11 12:52:18;;;;;;;0.10;0.10;;;22.30;47.50;;;;;;5031458;28;20216;-46
2024/03/11 12:54:49;;;;;;;0.10;0.10;;;22.30;47.50;;;;;;5031536;28;20307;-57
2024/03/11 12:57:20;;;;;;;0.10;0.10;;;22.20;47.50;;;;;;5031688;28;20589;-48
2024/03/11 13:00:07;;;;;;;0.10;0.10;;;22.30;47.60;;;;;;5031217;28;20196;-53
2024/03/11 13:02:37;;;;;;;0.00;0.00;;;22.20;47.50;;;;;;5030987;28;20234;-55
2024/03/11 13:05:17;;;;;;;0.00;0.00;;;22.20;47.50;;;;;;5030546;28;20211;-48
2024/03/11 13:07:48;;;;;;;0.10;0.10;;;22.20;47.60;;;;;;5031205;28;20290;-48
2024/03/11 13:10:19;;;;;;;0.08;0.08;;;22.20;47.50;;;;;;5030553;28;20250;-51
2024/03/11 13:12:51;;;;;;;0.00;0.00;;;22.20;47.50;;;;;;5030721;28;20196;-57